createdAt,value
2023-04-19T00:01:15.330Z,7.65
2023-04-19T00:04:23.658Z,7.85
2023-04-19T00:07:29.186Z,8.05
2023-04-19T00:10:36.169Z,8.27
2023-04-19T00:13:41.981Z,9.32
2023-04-19T00:16:47.525Z,9.63
2023-04-19T00:19:55.443Z,9.60
2023-04-19T00:23:01.505Z,10.27
2023-04-19T00:26:07.041Z,9.88
2023-04-19T00:29:12.832Z,9.10
2023-04-19T00:32:18.538Z,8.90
2023-04-19T00:35:26.453Z,9.00
2023-04-19T00:38:31.643Z,8.40
2023-04-19T00:41:37.301Z,9.32
2023-04-19T00:44:42.772Z,8.55
2023-04-19T00:47:48.340Z,8.60
2023-04-19T00:50:56.280Z,7.55
2023-04-19T00:54:01.880Z,8.77
2023-04-19T00:57:07.646Z,8.25
2023-04-19T01:00:13.600Z,8.40
2023-04-19T01:03:20.748Z,8.77
2023-04-19T01:06:33.169Z,7.97
2023-04-19T01:09:38.462Z,7.88
2023-04-19T01:12:43.925Z,8.05
2023-04-19T01:15:49.690Z,8.68
2023-04-19T01:18:55.405Z,7.78
2023-04-19T01:22:03.458Z,7.72
2023-04-19T01:25:11.942Z,7.85
2023-04-19T01:28:17.633Z,8.05
2023-04-19T01:31:23.373Z,8.13
2023-04-19T01:34:28.587Z,8.20
2023-04-19T01:37:38.084Z,8.00
2023-04-19T01:40:46.273Z,7.93
2023-04-19T01:43:51.899Z,7.43
2023-04-19T01:46:57.471Z,7.55
2023-04-19T01:50:02.937Z,7.57
2023-04-19T01:53:08.884Z,8.07
2023-04-19T01:56:16.787Z,6.82
2023-04-19T01:59:22.007Z,7.20
2023-04-19T02:02:27.356Z,7.15
2023-04-19T02:05:32.574Z,7.43
2023-04-19T02:08:38.320Z,7.57
2023-04-19T02:11:46.276Z,7.20
2023-04-19T02:14:51.747Z,8.45
2023-04-19T02:18:12.117Z,6.80
2023-04-19T02:21:18.630Z,7.35
2023-04-19T02:24:25.831Z,7.05
2023-04-19T02:27:33.762Z,7.20
2023-04-19T02:30:39.848Z,7.10
2023-04-19T02:33:47.070Z,6.93
2023-04-19T02:36:52.549Z,8.02
2023-04-19T02:39:57.797Z,7.20
2023-04-19T02:43:06.771Z,7.20
2023-04-19T02:46:12.081Z,7.05
2023-04-19T02:49:17.607Z,7.40
2023-04-19T02:52:23.125Z,6.93
2023-04-19T02:55:28.598Z,7.00
2023-04-19T02:58:46.054Z,6.82
2023-04-19T03:01:51.829Z,7.32
2023-04-19T03:04:57.795Z,7.13
2023-04-19T03:08:03.775Z,6.85
2023-04-19T03:11:09.593Z,7.18
2023-04-19T03:14:17.476Z,6.68
2023-04-19T03:17:23.177Z,7.93
2023-04-19T03:20:29.188Z,7.40
2023-04-19T03:23:35.736Z,7.13
2023-04-19T03:26:41.172Z,7.40
2023-04-19T03:29:49.751Z,7.47
2023-04-19T03:32:55.607Z,7.53
2023-04-19T03:36:01.401Z,7.78
2023-04-19T03:39:07.207Z,6.90
2023-04-19T03:42:14.860Z,7.45
2023-04-19T03:45:45.802Z,7.22
2023-04-19T03:48:51.639Z,7.13
2023-04-19T03:51:57.899Z,6.78
2023-04-19T03:55:05.482Z,6.53
2023-04-19T03:58:17.863Z,6.70
2023-04-19T04:01:35.547Z,6.85
2023-04-19T04:04:41.538Z,6.93
2023-04-19T04:07:47.089Z,6.97
2023-04-19T04:10:52.509Z,7.25
2023-04-19T04:13:59.361Z,6.85
2023-04-19T04:17:09.916Z,6.65
2023-04-19T04:20:17.106Z,6.35
2023-04-19T04:23:23.124Z,6.72
2023-04-19T04:26:31.080Z,7.43
2023-04-19T04:29:51.023Z,7.18
2023-04-19T04:33:00.438Z,6.63
2023-04-19T04:36:08.579Z,7.03
2023-04-19T04:39:16.324Z,6.88
2023-04-19T04:42:21.924Z,8.07
2023-04-19T04:45:27.493Z,7.25
2023-04-19T04:48:35.314Z,7.43
2023-04-19T04:51:43.477Z,7.00
2023-04-19T04:54:49.101Z,7.32
2023-04-19T04:58:02.698Z,7.65
2023-04-19T05:01:23.379Z,7.55
2023-04-19T05:04:31.668Z,6.93
2023-04-19T05:10:42.458Z,6.78
2023-04-19T05:13:48.455Z,6.82
2023-04-19T05:16:54.043Z,6.90
2023-04-19T05:20:02.516Z,6.68
2023-04-19T05:23:11.345Z,7.72
2023-04-19T05:26:17.811Z,7.55
2023-04-19T05:29:24.490Z,8.13
2023-04-19T05:32:33.009Z,6.78
2023-04-19T05:35:44.239Z,6.00
2023-04-19T05:38:50.265Z,6.22
2023-04-19T05:41:55.601Z,6.70
2023-04-19T05:45:01.171Z,7.22
2023-04-19T05:48:09.959Z,7.47
2023-04-19T05:51:35.379Z,6.65
2023-04-19T05:54:45.527Z,6.47
2023-04-19T05:57:50.973Z,6.15
2023-04-19T06:00:56.772Z,6.55
2023-04-19T06:04:02.874Z,6.38
2023-04-19T06:07:22.369Z,6.47
2023-04-19T06:10:49.690Z,6.25
2023-04-19T06:13:59.725Z,6.25
2023-04-19T06:17:05.713Z,7.25
2023-04-19T06:20:12.744Z,5.90
2023-04-19T06:23:20.844Z,6.43
2023-04-19T06:26:26.436Z,5.78
2023-04-19T06:29:31.782Z,5.85
2023-04-19T06:32:37.261Z,5.57
2023-04-19T06:35:42.568Z,5.63
2023-04-19T06:38:50.450Z,5.13
2023-04-19T06:41:56.032Z,6.18
2023-04-19T06:45:01.497Z,5.10
2023-04-19T06:48:10.909Z,5.55
2023-04-19T06:51:16.319Z,5.28
2023-04-19T06:54:24.652Z,5.10
2023-04-19T06:57:30.184Z,5.03
2023-04-19T07:00:35.849Z,4.93
2023-04-19T07:03:41.320Z,5.13
2023-04-19T07:06:46.861Z,4.38
2023-04-19T07:09:54.692Z,4.80
2023-04-19T07:13:00.265Z,4.63
2023-04-19T07:16:07.760Z,4.70
2023-04-19T07:19:13.365Z,4.22
2023-04-19T07:22:18.822Z,4.13
2023-04-19T07:25:27.141Z,4.40
2023-04-19T07:28:32.563Z,5.18
2023-04-19T07:31:38.240Z,3.72
2023-04-19T07:34:44.040Z,4.28
2023-04-19T07:38:08.569Z,4.00
2023-04-19T07:41:16.721Z,4.22
2023-04-19T07:44:22.283Z,4.60
2023-04-19T07:47:27.718Z,5.00
2023-04-19T07:50:33.092Z,4.75
2023-04-19T07:53:38.804Z,4.53
2023-04-19T07:56:46.988Z,4.75
2023-04-19T07:59:52.289Z,4.53
2023-04-19T08:02:57.789Z,4.68
2023-04-19T08:06:05.528Z,4.97
2023-04-19T08:09:11.035Z,4.90
2023-04-19T08:12:30.935Z,6.28
2023-04-19T08:18:52.026Z,5.60
2023-04-19T08:21:57.683Z,4.60
2023-04-19T08:25:02.926Z,5.30
2023-04-19T08:28:11.925Z,4.95
2023-04-19T08:31:17.301Z,5.25
2023-04-19T08:34:22.800Z,5.72
2023-04-19T08:37:28.716Z,5.70
2023-04-19T08:40:34.179Z,5.65
2023-04-19T08:43:42.640Z,5.97
2023-04-19T08:46:48.887Z,5.53
2023-04-19T08:50:08.713Z,5.55
2023-04-19T08:53:24.912Z,5.32
2023-04-19T08:56:35.601Z,5.20
2023-04-19T08:59:46.073Z,5.10
2023-04-19T09:02:53.089Z,5.75
2023-04-19T09:05:59.138Z,5.30
2023-04-19T09:09:33.084Z,5.22
2023-04-19T09:12:41.018Z,4.75
2023-04-19T09:15:49.279Z,5.20
2023-04-19T09:22:16.093Z,5.15
2023-04-19T09:28:35.824Z,5.10
2023-04-19T09:31:51.698Z,5.82
2023-04-19T09:34:58.379Z,5.70
2023-04-19T09:38:06.736Z,5.35
2023-04-19T09:41:12.640Z,6.13
2023-04-19T09:47:30.591Z,5.25
2023-04-19T09:50:50.462Z,5.40
2023-04-19T09:54:00.969Z,5.35
2023-04-19T09:57:06.847Z,5.47
2023-04-19T10:00:15.117Z,5.43
2023-04-19T10:03:24.181Z,6.13
2023-04-19T10:06:45.965Z,5.00
2023-04-19T10:10:04.981Z,5.65
2023-04-19T10:13:25.718Z,5.95
2023-04-19T10:16:33.191Z,5.95
2023-04-19T10:19:41.732Z,5.15
2023-04-19T10:22:47.091Z,5.43
2023-04-19T10:25:52.530Z,5.55
2023-04-19T10:28:58.936Z,5.45
2023-04-19T10:32:07.419Z,4.88
2023-04-19T10:35:20.401Z,5.70
2023-04-19T10:38:38.495Z,5.55
2023-04-19T10:41:58.602Z,6.13
2023-04-19T10:45:27.839Z,5.97
2023-04-19T10:48:53.857Z,5.57
2023-04-19T10:52:02.418Z,5.55
2023-04-19T10:58:12.908Z,5.25
2023-04-19T11:01:33.692Z,4.60
2023-04-19T11:04:54.156Z,5.07
2023-04-19T11:08:02.467Z,5.05
2023-04-19T11:11:07.902Z,4.82
2023-04-19T11:14:13.690Z,5.00
2023-04-19T11:17:19.587Z,4.95
2023-04-19T11:20:26.773Z,4.78
2023-04-19T11:23:34.778Z,4.87
2023-04-19T11:26:40.107Z,5.20
2023-04-19T11:29:45.514Z,5.53
2023-04-19T11:32:51.582Z,4.70
2023-04-19T11:35:57.634Z,5.20
2023-04-19T11:39:05.582Z,5.35
2023-04-19T11:42:19.897Z,5.10
2023-04-19T11:45:32.539Z,4.53
2023-04-19T11:48:41.330Z,4.32
2023-04-19T11:51:46.804Z,5.18
2023-04-19T11:54:55.004Z,5.45
2023-04-19T11:58:00.490Z,5.13
2023-04-19T12:01:07.439Z,5.18
2023-04-19T12:04:13.191Z,5.13
2023-04-19T12:07:18.495Z,5.20
2023-04-19T12:10:26.725Z,6.15
2023-04-19T12:13:32.429Z,5.22
2023-04-19T12:16:37.747Z,5.95
2023-04-19T12:19:46.733Z,5.50
2023-04-19T12:22:52.349Z,6.00
2023-04-19T12:26:00.481Z,5.10
2023-04-19T12:29:06.460Z,5.57
2023-04-19T12:32:13.597Z,5.20
2023-04-19T12:35:18.907Z,5.38
2023-04-19T12:38:24.347Z,5.47
2023-04-19T12:41:32.319Z,5.72
2023-04-19T12:44:37.635Z,5.50
2023-04-19T12:47:42.955Z,5.50
2023-04-19T12:50:48.561Z,5.60
2023-04-19T12:53:54.111Z,5.55
2023-04-19T12:57:03.467Z,5.15
2023-04-19T13:00:11.092Z,5.90
2023-04-19T13:03:16.888Z,5.75
2023-04-19T13:06:22.591Z,5.43
2023-04-19T13:09:28.021Z,5.70
2023-04-19T13:12:36.353Z,5.65
2023-04-19T13:15:42.296Z,5.88
2023-04-19T13:18:47.860Z,5.28
2023-04-19T13:21:53.513Z,5.50
2023-04-19T13:24:58.830Z,4.90
2023-04-19T13:28:06.989Z,5.03
2023-04-19T13:31:12.457Z,4.80
2023-04-19T13:34:19.289Z,5.13
2023-04-19T13:37:24.891Z,4.65
2023-04-19T13:40:30.433Z,4.90
2023-04-19T13:43:38.382Z,5.13
2023-04-19T13:46:43.588Z,4.78
2023-04-19T13:49:52.498Z,5.15
2023-04-19T13:52:58.241Z,5.55
2023-04-19T13:56:03.546Z,6.18
2023-04-19T13:59:11.796Z,6.15
2023-04-19T14:02:17.413Z,7.75
2023-04-19T14:05:22.974Z,8.13
2023-04-19T14:08:28.420Z,8.07
2023-04-19T14:11:33.892Z,8.25
2023-04-19T14:14:41.834Z,6.07
2023-04-19T14:17:47.047Z,6.30
2023-04-19T14:20:52.788Z,7.70
2023-04-19T14:23:58.681Z,8.18
2023-04-19T14:27:11.191Z,7.90
2023-04-19T14:30:19.690Z,8.68
2023-04-19T14:33:25.465Z,9.88
2023-04-19T14:36:30.878Z,8.25
2023-04-19T14:39:36.824Z,7.60
2023-04-19T14:42:42.089Z,7.10
2023-04-19T14:45:51.352Z,5.85
2023-04-19T14:48:57.517Z,5.40
2023-04-19T14:52:04.287Z,4.75
2023-04-19T14:55:10.417Z,5.20
2023-04-19T14:58:15.680Z,5.75
2023-04-19T15:01:24.952Z,5.57
2023-04-19T15:04:31.031Z,5.85
2023-04-19T15:07:36.440Z,5.55
2023-04-19T15:10:42.313Z,4.60
2023-04-19T15:13:47.540Z,5.03
2023-04-19T15:16:55.292Z,5.78
2023-04-19T15:20:00.596Z,5.78
2023-04-19T15:23:05.907Z,6.00
2023-04-19T15:26:11.250Z,5.28
2023-04-19T15:29:16.974Z,5.90
2023-04-19T15:32:25.087Z,4.57
2023-04-19T15:35:30.625Z,4.93
2023-04-19T15:38:35.859Z,5.00
2023-04-19T15:41:41.961Z,4.93
2023-04-19T15:44:47.542Z,4.63
2023-04-19T15:47:55.543Z,4.80
2023-04-19T15:51:01.948Z,5.18
2023-04-19T15:54:07.541Z,4.25
2023-04-19T15:57:12.767Z,4.80
2023-04-19T16:00:19.382Z,4.85
2023-04-19T16:03:28.230Z,5.35
2023-04-19T16:06:33.842Z,4.55
2023-04-19T16:09:39.316Z,4.43
2023-04-19T16:12:44.781Z,4.40
2023-04-19T16:15:50.108Z,5.63
2023-04-19T16:18:58.386Z,4.78
2023-04-19T16:22:05.837Z,4.68
2023-04-19T16:25:13.043Z,4.03
2023-04-19T16:28:19.248Z,4.63
2023-04-19T16:31:24.701Z,4.38
2023-04-19T16:34:32.782Z,4.57
2023-04-19T16:37:38.035Z,4.55
2023-04-19T16:40:44.888Z,5.18
2023-04-19T16:43:50.202Z,4.10
2023-04-19T16:46:55.835Z,4.65
2023-04-19T16:50:04.002Z,4.40
2023-04-19T16:53:09.994Z,4.45
2023-04-19T16:56:15.339Z,4.65
2023-04-19T16:59:21.121Z,4.30
2023-04-19T17:02:26.736Z,4.60
2023-04-19T17:05:34.904Z,5.05
2023-04-19T17:08:40.546Z,4.80
2023-04-19T17:11:45.862Z,4.63
2023-04-19T17:14:51.667Z,5.18
2023-04-19T17:17:57.395Z,5.35
2023-04-19T17:21:05.523Z,5.03
2023-04-19T17:24:14.022Z,5.22
2023-04-19T17:27:19.413Z,4.85
2023-04-19T17:30:24.840Z,4.68
2023-04-19T17:33:30.266Z,4.78
2023-04-19T17:36:38.117Z,5.63
2023-04-19T17:39:43.754Z,4.93
2023-04-19T17:42:48.970Z,4.93
2023-04-19T17:45:54.453Z,5.30
2023-04-19T17:49:00.168Z,4.53
2023-04-19T17:52:08.353Z,5.05
2023-04-19T17:55:13.615Z,5.05
2023-04-19T17:58:19.541Z,4.88
2023-04-19T18:01:25.920Z,5.00
2023-04-19T18:04:31.368Z,5.00
2023-04-19T18:07:39.676Z,4.72
2023-04-19T18:10:45.101Z,5.38
2023-04-19T18:13:50.648Z,5.00
2023-04-19T18:16:55.827Z,5.75
2023-04-19T18:20:02.644Z,5.47
2023-04-19T18:23:11.597Z,4.83
2023-04-19T18:26:17.203Z,5.55
2023-04-19T18:29:24.626Z,5.57
2023-04-19T18:32:30.522Z,5.68
2023-04-19T18:35:36.922Z,5.97
2023-04-19T18:38:44.874Z,5.47
2023-04-19T18:41:50.607Z,5.78
2023-04-19T18:44:56.204Z,6.05
2023-04-19T18:48:03.985Z,5.70
2023-04-19T18:51:11.933Z,5.82
2023-04-19T18:54:20.083Z,5.83
2023-04-19T18:57:27.494Z,5.38
2023-04-19T19:00:33.604Z,5.78
2023-04-19T19:04:07.883Z,6.60
2023-04-19T19:07:14.370Z,5.90
2023-04-19T19:11:00.285Z,5.60
2023-04-19T19:13:58.414Z,6.13
2023-04-19T19:17:04.038Z,5.75
2023-04-19T19:20:10.532Z,5.82
2023-04-19T19:23:16.055Z,6.30
2023-04-19T19:26:24.407Z,5.30
2023-04-19T19:32:34.905Z,6.80
2023-04-19T19:35:40.890Z,5.88
2023-04-19T19:38:46.327Z,6.22
2023-04-19T19:42:04.348Z,6.57
2023-04-19T19:45:11.372Z,6.00
2023-04-19T19:48:17.579Z,5.95
2023-04-19T19:51:48.082Z,5.97
2023-04-19T19:54:48.763Z,6.28
2023-04-19T20:01:06.439Z,5.90
2023-04-19T20:04:12.078Z,6.50
2023-04-19T20:07:33.310Z,6.13
2023-04-19T20:10:43.907Z,6.38
2023-04-19T20:13:51.873Z,7.47
2023-04-19T20:16:57.496Z,7.40
2023-04-19T20:20:05.974Z,6.68
2023-04-19T20:23:11.936Z,7.00
2023-04-19T20:26:17.252Z,6.85
2023-04-19T20:29:25.103Z,7.03
2023-04-19T20:32:30.887Z,7.13
2023-04-19T20:35:36.808Z,6.40
2023-04-19T20:38:42.412Z,6.72
2023-04-19T20:41:48.961Z,7.00
2023-04-19T20:44:56.876Z,6.75
2023-04-19T20:48:02.456Z,7.10
2023-04-19T20:51:07.850Z,6.75
2023-04-19T20:54:13.026Z,6.75
2023-04-19T20:57:18.346Z,6.80
2023-04-19T21:00:26.399Z,7.05
2023-04-19T21:03:32.013Z,6.30
2023-04-19T21:06:37.655Z,6.72
2023-04-19T21:09:43.234Z,6.45
2023-04-19T21:12:48.648Z,6.47
2023-04-19T21:15:56.817Z,6.15
2023-04-19T21:19:01.980Z,6.72
2023-04-19T21:22:07.528Z,6.93
2023-04-19T21:25:13.601Z,7.32
2023-04-19T21:28:19.170Z,7.25
2023-04-19T21:31:27.118Z,6.90
2023-04-19T21:34:32.379Z,7.22
2023-04-19T21:37:38.794Z,7.28
2023-04-19T21:40:44.286Z,6.93
2023-04-19T21:43:49.817Z,6.72
2023-04-19T21:46:58.088Z,6.97
2023-04-19T21:50:03.628Z,6.65
2023-04-19T21:53:09.359Z,6.45
2023-04-19T21:56:15.267Z,6.10
2023-04-19T21:59:21.386Z,6.60
2023-04-19T22:02:29.780Z,5.72
2023-04-19T22:05:35.461Z,6.28
2023-04-19T22:08:40.903Z,7.57
2023-04-19T22:11:46.228Z,6.22
2023-04-19T22:14:51.653Z,6.45
2023-04-19T22:18:03.391Z,6.45
2023-04-19T22:21:10.379Z,6.97
2023-04-19T22:24:16.061Z,6.65
2023-04-19T22:27:21.520Z,6.97
2023-04-19T22:30:27.007Z,7.20
2023-04-19T22:33:35.168Z,6.32
2023-04-19T22:36:40.362Z,6.43
2023-04-19T22:39:46.020Z,6.43
2023-04-19T22:42:51.628Z,6.47
2023-04-19T22:45:56.952Z,6.40
2023-04-19T22:49:04.712Z,6.55
2023-04-19T22:52:10.318Z,7.07
2023-04-19T22:55:15.764Z,6.38
2023-04-19T22:58:22.082Z,6.20
2023-04-19T23:01:27.525Z,5.80
2023-04-19T23:04:38.718Z,6.50
2023-04-19T23:07:45.394Z,7.20
2023-04-19T23:10:52.654Z,6.93
2023-04-19T23:13:57.900Z,6.82
2023-04-19T23:17:03.677Z,6.43
2023-04-19T23:20:12.791Z,6.50
2023-04-19T23:23:20.416Z,6.30
2023-04-19T23:26:25.892Z,7.25
2023-04-19T23:29:31.277Z,5.88
2023-04-19T23:32:36.670Z,6.35
2023-04-19T23:35:44.564Z,7.72
2023-04-19T23:38:49.754Z,6.60
2023-04-19T23:41:54.970Z,6.45
2023-04-19T23:45:00.071Z,7.45
2023-04-19T23:48:05.876Z,7.13
2023-04-19T23:51:14.014Z,6.60
2023-04-19T23:54:22.545Z,7.18
2023-04-19T23:57:28.322Z,6.78
